sensor_id;sensor_type;location;lat;lon;timestamp;temperature;humidity
15937;DHT22;9163;48.818;8.976;2022-12-08T00:00:49;-0.90;99.90
15937;DHT22;9163;48.818;8.976;2022-12-08T00:03:16;-0.90;99.90
15937;DHT22;9163;48.818;8.976;2022-12-08T00:05:44;-0.80;99.90
15937;DHT22;9163;48.818;8.976;2022-12-08T00:08:31;-0.80;99.90
15937;DHT22;9163;48.818;8.976;2022-12-08T00:11:16;-0.90;99.90
15937;DHT22;9163;48.818;8.976;2022-12-08T00:13:43;-0.90;99.90
15937;DHT22;9163;48.818;8.976;2022-12-08T00:16:11;-0.90;99.90
15937;DHT22;9163;48.818;8.976;2022-12-08T00:18:38;-0.90;99.90
15937;DHT22;9163;48.818;8.976;2022-12-08T00:21:06;-0.90;99.90
15937;DHT22;9163;48.818;8.976;2022-12-08T00:23:34;-0.90;99.90
15937;DHT22;9163;48.818;8.976;2022-12-08T00:26:02;-0.90;99.90
15937;DHT22;9163;48.818;8.976;2022-12-08T00:28:30;-1.00;99.90
15937;DHT22;9163;48.818;8.976;2022-12-08T00:30:57;-1.00;99.90
15937;DHT22;9163;48.818;8.976;2022-12-08T00:33:26;-1.10;99.90
15937;DHT22;9163;48.818;8.976;2022-12-08T00:35:54;-1.10;99.90
15937;DHT22;9163;48.818;8.976;2022-12-08T00:38:21;-1.00;99.90
15937;DHT22;9163;48.818;8.976;2022-12-08T00:40:50;-1.00;99.90
15937;DHT22;9163;48.818;8.976;2022-12-08T00:43:17;-1.10;99.90
15937;DHT22;9163;48.818;8.976;2022-12-08T00:45:44;-1.10;99.90
15937;DHT22;9163;48.818;8.976;2022-12-08T00:48:12;-1.20;99.90
15937;DHT22;9163;48.818;8.976;2022-12-08T00:50:39;-1.20;99.90
15937;DHT22;9163;48.818;8.976;2022-12-08T00:53:06;-1.20;99.90
15937;DHT22;9163;48.818;8.976;2022-12-08T00:55:34;-1.20;99.90
15937;DHT22;9163;48.818;8.976;2022-12-08T00:58:02;-1.30;99.90
15937;DHT22;9163;48.818;8.976;2022-12-08T01:00:30;-1.30;99.90
15937;DHT22;9163;48.818;8.976;2022-12-08T01:02:57;-1.30;99.90
15937;DHT22;9163;48.818;8.976;2022-12-08T01:05:24;-1.40;99.90
15937;DHT22;9163;48.818;8.976;2022-12-08T01:07:52;-1.40;99.90
15937;DHT22;9163;48.818;8.976;2022-12-08T01:10:19;-1.40;99.90
15937;DHT22;9163;48.818;8.976;2022-12-08T01:12:46;-1.40;99.90
15937;DHT22;9163;48.818;8.976;2022-12-08T01:15:15;-1.40;99.90
15937;DHT22;9163;48.818;8.976;2022-12-08T01:17:42;-1.40;99.90
15937;DHT22;9163;48.818;8.976;2022-12-08T01:20:10;-1.40;99.90
15937;DHT22;9163;48.818;8.976;2022-12-08T01:22:38;-1.40;99.90
15937;DHT22;9163;48.818;8.976;2022-12-08T01:25:08;-1.40;99.90
15937;DHT22;9163;48.818;8.976;2022-12-08T01:27:35;-1.40;99.90
15937;DHT22;9163;48.818;8.976;2022-12-08T01:30:03;-1.40;99.90
15937;DHT22;9163;48.818;8.976;2022-12-08T01:32:32;-1.40;99.90
15937;DHT22;9163;48.818;8.976;2022-12-08T01:34:59;-1.40;99.90
15937;DHT22;9163;48.818;8.976;2022-12-08T01:37:26;-1.40;99.90
15937;DHT22;9163;48.818;8.976;2022-12-08T01:39:55;-1.50;99.90
15937;DHT22;9163;48.818;8.976;2022-12-08T01:42:23;-1.60;99.90
15937;DHT22;9163;48.818;8.976;2022-12-08T01:44:54;-1.60;99.90
15937;DHT22;9163;48.818;8.976;2022-12-08T01:47:25;-1.60;99.90
15937;DHT22;9163;48.818;8.976;2022-12-08T01:49:54;-1.70;99.90
15937;DHT22;9163;48.818;8.976;2022-12-08T01:52:26;-1.70;99.90
15937;DHT22;9163;48.818;8.976;2022-12-08T01:54:58;-1.70;99.90
15937;DHT22;9163;48.818;8.976;2022-12-08T01:57:28;-1.70;99.90
15937;DHT22;9163;48.818;8.976;2022-12-08T02:00:02;-1.70;99.90
15937;DHT22;9163;48.818;8.976;2022-12-08T02:02:34;-1.70;99.90
15937;DHT22;9163;48.818;8.976;2022-12-08T02:05:06;-1.60;99.90
15937;DHT22;9163;48.818;8.976;2022-12-08T02:07:34;-1.60;99.90
15937;DHT22;9163;48.818;8.976;2022-12-08T02:10:04;-1.60;99.90
15937;DHT22;9163;48.818;8.976;2022-12-08T02:12:32;-1.50;99.90
15937;DHT22;9163;48.818;8.976;2022-12-08T02:15:00;-1.60;99.90
15937;DHT22;9163;48.818;8.976;2022-12-08T02:17:39;-1.60;99.90
15937;DHT22;9163;48.818;8.976;2022-12-08T02:20:32;-1.60;99.90
15937;DHT22;9163;48.818;8.976;2022-12-08T02:23:10;-1.70;99.90
15937;DHT22;9163;48.818;8.976;2022-12-08T02:25:51;-1.70;99.90
15937;DHT22;9163;48.818;8.976;2022-12-08T02:28:45;-1.70;99.90
15937;DHT22;9163;48.818;8.976;2022-12-08T02:31:24;-1.80;99.90
15937;DHT22;9163;48.818;8.976;2022-12-08T02:34:12;-1.80;99.90
15937;DHT22;9163;48.818;8.976;2022-12-08T02:36:48;-1.80;99.90
15937;DHT22;9163;48.818;8.976;2022-12-08T02:39:26;-1.80;99.90
15937;DHT22;9163;48.818;8.976;2022-12-08T02:42:00;-1.80;99.90
15937;DHT22;9163;48.818;8.976;2022-12-08T02:44:31;-1.80;99.90
15937;DHT22;9163;48.818;8.976;2022-12-08T02:47:04;-1.80;99.90
15937;DHT22;9163;48.818;8.976;2022-12-08T02:49:35;-1.70;99.90
15937;DHT22;9163;48.818;8.976;2022-12-08T02:52:07;-1.70;99.90
15937;DHT22;9163;48.818;8.976;2022-12-08T02:54:35;-1.70;99.90
15937;DHT22;9163;48.818;8.976;2022-12-08T02:57:21;-1.70;99.90
15937;DHT22;9163;48.818;8.976;2022-12-08T03:00:05;-1.70;99.90
15937;DHT22;9163;48.818;8.976;2022-12-08T03:02:41;-1.70;99.90
15937;DHT22;9163;48.818;8.976;2022-12-08T03:05:22;-1.70;99.90
15937;DHT22;9163;48.818;8.976;2022-12-08T03:07:59;-1.70;99.90
15937;DHT22;9163;48.818;8.976;2022-12-08T03:10:32;-1.70;99.90
15937;DHT22;9163;48.818;8.976;2022-12-08T03:13:04;-1.70;99.90
15937;DHT22;9163;48.818;8.976;2022-12-08T03:15:34;-1.70;99.90
15937;DHT22;9163;48.818;8.976;2022-12-08T03:18:05;-1.70;99.90
15937;DHT22;9163;48.818;8.976;2022-12-08T03:20:37;-1.80;99.90
15937;DHT22;9163;48.818;8.976;2022-12-08T03:23:08;-1.80;99.90
15937;DHT22;9163;48.818;8.976;2022-12-08T03:25:42;-1.80;99.90
15937;DHT22;9163;48.818;8.976;2022-12-08T03:28:10;-1.90;99.90
15937;DHT22;9163;48.818;8.976;2022-12-08T03:30:39;-1.90;99.90
15937;DHT22;9163;48.818;8.976;2022-12-08T03:33:14;-1.80;99.90
15937;DHT22;9163;48.818;8.976;2022-12-08T03:35:46;-1.90;99.90
15937;DHT22;9163;48.818;8.976;2022-12-08T03:38:15;-1.80;99.90
15937;DHT22;9163;48.818;8.976;2022-12-08T03:40:43;-1.80;99.90
15937;DHT22;9163;48.818;8.976;2022-12-08T03:43:30;-1.80;99.90
15937;DHT22;9163;48.818;8.976;2022-12-08T03:45:57;-1.90;99.90
15937;DHT22;9163;48.818;8.976;2022-12-08T03:48:29;-1.90;99.90
15937;DHT22;9163;48.818;8.976;2022-12-08T03:50:58;-1.90;99.90
15937;DHT22;9163;48.818;8.976;2022-12-08T03:53:25;-2.00;99.90
15937;DHT22;9163;48.818;8.976;2022-12-08T03:55:53;-2.00;99.90
15937;DHT22;9163;48.818;8.976;2022-12-08T03:58:20;-2.00;99.90
15937;DHT22;9163;48.818;8.976;2022-12-08T04:00:47;-2.00;99.90
15937;DHT22;9163;48.818;8.976;2022-12-08T04:03:15;-2.00;99.90
15937;DHT22;9163;48.818;8.976;2022-12-08T04:05:42;-2.10;99.90
15937;DHT22;9163;48.818;8.976;2022-12-08T04:08:11;-2.10;99.90
15937;DHT22;9163;48.818;8.976;2022-12-08T04:10:38;-2.10;99.90
15937;DHT22;9163;48.818;8.976;2022-12-08T04:13:05;-2.10;99.90
15937;DHT22;9163;48.818;8.976;2022-12-08T04:15:35;-2.20;99.90
15937;DHT22;9163;48.818;8.976;2022-12-08T04:18:03;-2.10;99.90
15937;DHT22;9163;48.818;8.976;2022-12-08T04:20:30;-2.20;99.90
15937;DHT22;9163;48.818;8.976;2022-12-08T04:22:57;-2.20;99.90
15937;DHT22;9163;48.818;8.976;2022-12-08T04:25:26;-2.20;99.90
15937;DHT22;9163;48.818;8.976;2022-12-08T04:27:54;-2.20;99.90
15937;DHT22;9163;48.818;8.976;2022-12-08T04:30:21;-2.20;99.90
15937;DHT22;9163;48.818;8.976;2022-12-08T04:32:48;-2.30;99.90
15937;DHT22;9163;48.818;8.976;2022-12-08T04:35:17;-2.30;99.90
15937;DHT22;9163;48.818;8.976;2022-12-08T04:37:44;-2.30;99.90
15937;DHT22;9163;48.818;8.976;2022-12-08T04:40:12;-2.30;99.90
15937;DHT22;9163;48.818;8.976;2022-12-08T04:42:41;-2.30;99.90
15937;DHT22;9163;48.818;8.976;2022-12-08T04:45:09;-2.30;99.90
15937;DHT22;9163;48.818;8.976;2022-12-08T04:47:37;-2.30;99.90
15937;DHT22;9163;48.818;8.976;2022-12-08T04:50:05;-2.30;99.90
15937;DHT22;9163;48.818;8.976;2022-12-08T04:52:33;-2.30;99.90
15937;DHT22;9163;48.818;8.976;2022-12-08T04:55:01;-2.40;99.90
15937;DHT22;9163;48.818;8.976;2022-12-08T04:57:28;-2.30;99.90
15937;DHT22;9163;48.818;8.976;2022-12-08T04:59:57;-2.40;99.90
15937;DHT22;9163;48.818;8.976;2022-12-08T05:02:24;-2.40;99.90
15937;DHT22;9163;48.818;8.976;2022-12-08T05:04:52;-2.40;99.90
15937;DHT22;9163;48.818;8.976;2022-12-08T05:07:19;-2.40;99.90
15937;DHT22;9163;48.818;8.976;2022-12-08T05:09:46;-2.30;99.90
15937;DHT22;9163;48.818;8.976;2022-12-08T05:12:14;-2.30;99.90
15937;DHT22;9163;48.818;8.976;2022-12-08T05:14:41;-2.40;99.90
15937;DHT22;9163;48.818;8.976;2022-12-08T05:17:10;-2.40;99.90
15937;DHT22;9163;48.818;8.976;2022-12-08T05:19:37;-2.40;99.90
15937;DHT22;9163;48.818;8.976;2022-12-08T05:22:04;-2.40;99.90
15937;DHT22;9163;48.818;8.976;2022-12-08T05:24:31;-2.40;99.90
15937;DHT22;9163;48.818;8.976;2022-12-08T05:26:59;-2.40;99.90
15937;DHT22;9163;48.818;8.976;2022-12-08T05:29:26;-2.30;99.90
15937;DHT22;9163;48.818;8.976;2022-12-08T05:31:53;-2.30;99.90
15937;DHT22;9163;48.818;8.976;2022-12-08T05:34:22;-2.40;99.90
15937;DHT22;9163;48.818;8.976;2022-12-08T05:36:50;-2.40;99.90
15937;DHT22;9163;48.818;8.976;2022-12-08T05:39:17;-2.40;99.90
15937;DHT22;9163;48.818;8.976;2022-12-08T05:41:44;-2.50;99.90
15937;DHT22;9163;48.818;8.976;2022-12-08T05:44:12;-2.50;99.90
15937;DHT22;9163;48.818;8.976;2022-12-08T05:46:39;-2.50;99.90
15937;DHT22;9163;48.818;8.976;2022-12-08T05:49:07;-2.60;99.90
15937;DHT22;9163;48.818;8.976;2022-12-08T05:51:35;-2.60;99.90
15937;DHT22;9163;48.818;8.976;2022-12-08T05:54:03;-2.60;99.90
15937;DHT22;9163;48.818;8.976;2022-12-08T05:56:30;-2.50;99.90
15937;DHT22;9163;48.818;8.976;2022-12-08T05:58:57;-2.60;99.90
15937;DHT22;9163;48.818;8.976;2022-12-08T06:01:26;-2.60;99.90
15937;DHT22;9163;48.818;8.976;2022-12-08T06:03:54;-2.70;99.90
15937;DHT22;9163;48.818;8.976;2022-12-08T06:06:23;-2.70;99.90
15937;DHT22;9163;48.818;8.976;2022-12-08T06:08:52;-2.70;99.90
15937;DHT22;9163;48.818;8.976;2022-12-08T06:11:21;-2.70;99.90
15937;DHT22;9163;48.818;8.976;2022-12-08T06:13:49;-2.70;99.90
15937;DHT22;9163;48.818;8.976;2022-12-08T06:16:16;-2.80;99.90
15937;DHT22;9163;48.818;8.976;2022-12-08T06:18:44;-2.80;99.90
15937;DHT22;9163;48.818;8.976;2022-12-08T06:21:12;-2.90;99.90
15937;DHT22;9163;48.818;8.976;2022-12-08T06:23:41;-2.90;99.90
15937;DHT22;9163;48.818;8.976;2022-12-08T06:26:11;-2.90;99.90
15937;DHT22;9163;48.818;8.976;2022-12-08T06:28:39;-2.90;99.90
15937;DHT22;9163;48.818;8.976;2022-12-08T06:31:08;-2.90;99.90
15937;DHT22;9163;48.818;8.976;2022-12-08T06:33:37;-2.90;99.90
15937;DHT22;9163;48.818;8.976;2022-12-08T06:36:05;-2.90;99.90
15937;DHT22;9163;48.818;8.976;2022-12-08T06:38:33;-2.90;99.90
15937;DHT22;9163;48.818;8.976;2022-12-08T06:41:00;-3.00;99.90
15937;DHT22;9163;48.818;8.976;2022-12-08T06:43:29;-3.00;99.90
15937;DHT22;9163;48.818;8.976;2022-12-08T06:45:56;-3.00;99.90
15937;DHT22;9163;48.818;8.976;2022-12-08T06:48:24;-3.00;99.90
15937;DHT22;9163;48.818;8.976;2022-12-08T06:50:51;-3.00;99.90
15937;DHT22;9163;48.818;8.976;2022-12-08T06:53:18;-3.00;99.90
15937;DHT22;9163;48.818;8.976;2022-12-08T06:55:50;-3.00;99.90
15937;DHT22;9163;48.818;8.976;2022-12-08T06:58:18;-3.10;99.90
15937;DHT22;9163;48.818;8.976;2022-12-08T07:00:47;-3.00;99.90
15937;DHT22;9163;48.818;8.976;2022-12-08T07:03:14;-3.00;99.90
15937;DHT22;9163;48.818;8.976;2022-12-08T07:05:42;-3.00;99.90
15937;DHT22;9163;48.818;8.976;2022-12-08T07:08:09;-3.10;99.90
15937;DHT22;9163;48.818;8.976;2022-12-08T07:10:36;-3.00;99.90
15937;DHT22;9163;48.818;8.976;2022-12-08T07:13:04;-3.00;99.90
15937;DHT22;9163;48.818;8.976;2022-12-08T07:15:31;-3.00;99.90
15937;DHT22;9163;48.818;8.976;2022-12-08T07:18:00;-2.90;99.90
15937;DHT22;9163;48.818;8.976;2022-12-08T07:20:27;-2.70;99.90
15937;DHT22;9163;48.818;8.976;2022-12-08T07:22:54;-2.50;99.90
15937;DHT22;9163;48.818;8.976;2022-12-08T07:25:22;-2.30;99.90
15937;DHT22;9163;48.818;8.976;2022-12-08T07:27:50;-2.10;99.90
15937;DHT22;9163;48.818;8.976;2022-12-08T07:30:18;-1.80;99.90
15937;DHT22;9163;48.818;8.976;2022-12-08T07:32:46;-1.50;99.90
15937;DHT22;9163;48.818;8.976;2022-12-08T07:35:14;-1.30;99.90
15937;DHT22;9163;48.818;8.976;2022-12-08T07:37:42;-0.90;99.90
15937;DHT22;9163;48.818;8.976;2022-12-08T07:40:10;-0.70;99.90
15937;DHT22;9163;48.818;8.976;2022-12-08T07:42:38;-0.50;99.90
15937;DHT22;9163;48.818;8.976;2022-12-08T07:45:06;0.00;99.90
15937;DHT22;9163;48.818;8.976;2022-12-08T07:47:33;0.10;99.90
15937;DHT22;9163;48.818;8.976;2022-12-08T07:50:01;0.30;99.90
15937;DHT22;9163;48.818;8.976;2022-12-08T07:52:30;0.50;99.90
15937;DHT22;9163;48.818;8.976;2022-12-08T07:54:59;1.00;99.90
15937;DHT22;9163;48.818;8.976;2022-12-08T07:57:27;1.20;99.90
15937;DHT22;9163;48.818;8.976;2022-12-08T07:59:54;1.30;99.90
15937;DHT22;9163;48.818;8.976;2022-12-08T08:02:21;1.40;99.90
15937;DHT22;9163;48.818;8.976;2022-12-08T08:04:49;1.90;99.90
15937;DHT22;9163;48.818;8.976;2022-12-08T08:07:17;2.20;99.90
15937;DHT22;9163;48.818;8.976;2022-12-08T08:09:45;2.70;99.90
15937;DHT22;9163;48.818;8.976;2022-12-08T08:12:13;3.20;99.90
15937;DHT22;9163;48.818;8.976;2022-12-08T08:14:40;3.60;99.90
15937;DHT22;9163;48.818;8.976;2022-12-08T08:17:07;3.60;99.90
15937;DHT22;9163;48.818;8.976;2022-12-08T08:19:35;4.20;99.90
15937;DHT22;9163;48.818;8.976;2022-12-08T08:22:03;4.60;99.90
15937;DHT22;9163;48.818;8.976;2022-12-08T08:24:32;4.80;99.90
15937;DHT22;9163;48.818;8.976;2022-12-08T08:27:04;4.30;99.90
15937;DHT22;9163;48.818;8.976;2022-12-08T08:29:32;5.20;99.90
15937;DHT22;9163;48.818;8.976;2022-12-08T08:32:01;5.00;99.90
15937;DHT22;9163;48.818;8.976;2022-12-08T08:34:29;4.60;99.90
15937;DHT22;9163;48.818;8.976;2022-12-08T08:36:57;4.90;99.90
15937;DHT22;9163;48.818;8.976;2022-12-08T08:39:24;4.00;99.90
15937;DHT22;9163;48.818;8.976;2022-12-08T08:41:52;4.10;99.90
15937;DHT22;9163;48.818;8.976;2022-12-08T08:44:20;4.40;99.90
15937;DHT22;9163;48.818;8.976;2022-12-08T08:46:48;5.30;99.90
15937;DHT22;9163;48.818;8.976;2022-12-08T08:49:15;5.60;99.90
15937;DHT22;9163;48.818;8.976;2022-12-08T08:51:43;5.80;99.90
15937;DHT22;9163;48.818;8.976;2022-12-08T08:54:11;6.20;99.90
15937;DHT22;9163;48.818;8.976;2022-12-08T08:56:38;7.30;99.90
15937;DHT22;9163;48.818;8.976;2022-12-08T08:59:05;7.60;99.90
15937;DHT22;9163;48.818;8.976;2022-12-08T09:01:34;7.60;99.90
15937;DHT22;9163;48.818;8.976;2022-12-08T09:04:01;7.30;99.90
15937;DHT22;9163;48.818;8.976;2022-12-08T09:06:29;8.20;99.90
15937;DHT22;9163;48.818;8.976;2022-12-08T09:09:02;9.20;99.90
15937;DHT22;9163;48.818;8.976;2022-12-08T09:11:29;7.90;99.90
15937;DHT22;9163;48.818;8.976;2022-12-08T09:13:57;7.20;99.90
15937;DHT22;9163;48.818;8.976;2022-12-08T09:16:25;8.20;99.90
15937;DHT22;9163;48.818;8.976;2022-12-08T09:18:53;7.90;99.90
15937;DHT22;9163;48.818;8.976;2022-12-08T09:21:22;8.40;99.90
15937;DHT22;9163;48.818;8.976;2022-12-08T09:23:52;8.00;99.90
15937;DHT22;9163;48.818;8.976;2022-12-08T09:26:21;7.90;99.90
15937;DHT22;9163;48.818;8.976;2022-12-08T09:28:50;7.60;99.90
15937;DHT22;9163;48.818;8.976;2022-12-08T09:31:18;8.50;99.90
15937;DHT22;9163;48.818;8.976;2022-12-08T09:33:47;9.40;99.90
15937;DHT22;9163;48.818;8.976;2022-12-08T09:36:18;9.60;99.90
15937;DHT22;9163;48.818;8.976;2022-12-08T09:38:45;8.70;99.90
15937;DHT22;9163;48.818;8.976;2022-12-08T09:41:16;8.80;99.90
15937;DHT22;9163;48.818;8.976;2022-12-08T09:43:58;8.70;99.90
15937;DHT22;9163;48.818;8.976;2022-12-08T09:46:31;8.70;99.90
15937;DHT22;9163;48.818;8.976;2022-12-08T09:49:01;8.60;99.90
15937;DHT22;9163;48.818;8.976;2022-12-08T09:51:34;8.70;99.90
15937;DHT22;9163;48.818;8.976;2022-12-08T09:54:05;10.10;99.90
15937;DHT22;9163;48.818;8.976;2022-12-08T09:56:36;9.30;99.90
15937;DHT22;9163;48.818;8.976;2022-12-08T09:59:10;11.00;99.90
15937;DHT22;9163;48.818;8.976;2022-12-08T10:01:42;11.90;99.90
15937;DHT22;9163;48.818;8.976;2022-12-08T10:04:21;13.20;99.90
15937;DHT22;9163;48.818;8.976;2022-12-08T10:06:58;14.00;99.90
15937;DHT22;9163;48.818;8.976;2022-12-08T10:09:36;13.80;99.90
15937;DHT22;9163;48.818;8.976;2022-12-08T10:12:11;13.10;99.90
15937;DHT22;9163;48.818;8.976;2022-12-08T10:14:43;12.80;99.90
15937;DHT22;9163;48.818;8.976;2022-12-08T10:17:16;11.40;99.90
15937;DHT22;9163;48.818;8.976;2022-12-08T10:19:45;12.00;99.90
15937;DHT22;9163;48.818;8.976;2022-12-08T10:22:20;11.80;99.90
15937;DHT22;9163;48.818;8.976;2022-12-08T10:24:56;11.90;99.90
15937;DHT22;9163;48.818;8.976;2022-12-08T10:27:24;10.40;99.90
15937;DHT22;9163;48.818;8.976;2022-12-08T10:29:52;8.50;99.90
15937;DHT22;9163;48.818;8.976;2022-12-08T10:32:21;7.70;99.90
15937;DHT22;9163;48.818;8.976;2022-12-08T10:35:01;6.50;99.90
15937;DHT22;9163;48.818;8.976;2022-12-08T10:37:30;6.10;99.90
15937;DHT22;9163;48.818;8.976;2022-12-08T10:39:59;5.40;99.90
15937;DHT22;9163;48.818;8.976;2022-12-08T10:42:33;4.70;99.90
15937;DHT22;9163;48.818;8.976;2022-12-08T10:45:16;4.50;99.90
15937;DHT22;9163;48.818;8.976;2022-12-08T10:47:58;4.00;99.90
15937;DHT22;9163;48.818;8.976;2022-12-08T10:50:32;4.00;99.90
15937;DHT22;9163;48.818;8.976;2022-12-08T10:53:09;3.80;99.90
15937;DHT22;9163;48.818;8.976;2022-12-08T10:55:40;3.70;99.90
15937;DHT22;9163;48.818;8.976;2022-12-08T10:58:40;3.70;99.90
15937;DHT22;9163;48.818;8.976;2022-12-08T11:01:19;4.10;99.90
15937;DHT22;9163;48.818;8.976;2022-12-08T11:03:49;4.50;99.90
15937;DHT22;9163;48.818;8.976;2022-12-08T11:06:18;4.60;99.90
15937;DHT22;9163;48.818;8.976;2022-12-08T11:08:50;4.60;99.90
15937;DHT22;9163;48.818;8.976;2022-12-08T11:11:19;4.40;99.90
15937;DHT22;9163;48.818;8.976;2022-12-08T11:13:49;4.50;99.90
15937;DHT22;9163;48.818;8.976;2022-12-08T11:16:18;4.50;99.90
15937;DHT22;9163;48.818;8.976;2022-12-08T11:18:55;4.30;99.90
15937;DHT22;9163;48.818;8.976;2022-12-08T11:21:32;4.30;99.90
15937;DHT22;9163;48.818;8.976;2022-12-08T11:24:19;4.10;99.90
15937;DHT22;9163;48.818;8.976;2022-12-08T11:26:50;4.10;99.90
15937;DHT22;9163;48.818;8.976;2022-12-08T11:29:18;4.00;99.90
15937;DHT22;9163;48.818;8.976;2022-12-08T11:31:48;4.00;99.90
15937;DHT22;9163;48.818;8.976;2022-12-08T11:34:21;4.00;99.90
15937;DHT22;9163;48.818;8.976;2022-12-08T11:36:51;3.70;99.90
15937;DHT22;9163;48.818;8.976;2022-12-08T11:39:21;3.50;99.90
15937;DHT22;9163;48.818;8.976;2022-12-08T11:41:50;3.30;99.90
15937;DHT22;9163;48.818;8.976;2022-12-08T11:44:24;3.30;99.90
15937;DHT22;9163;48.818;8.976;2022-12-08T11:46:55;3.10;99.90
15937;DHT22;9163;48.818;8.976;2022-12-08T11:49:33;2.80;99.90
15937;DHT22;9163;48.818;8.976;2022-12-08T11:52:06;2.80;99.90
15937;DHT22;9163;48.818;8.976;2022-12-08T11:54:44;2.70;99.90
15937;DHT22;9163;48.818;8.976;2022-12-08T11:57:15;2.70;99.90
15937;DHT22;9163;48.818;8.976;2022-12-08T11:59:48;2.60;99.90
15937;DHT22;9163;48.818;8.976;2022-12-08T12:02:18;2.60;99.90
15937;DHT22;9163;48.818;8.976;2022-12-08T12:04:51;2.60;99.90
15937;DHT22;9163;48.818;8.976;2022-12-08T12:07:48;2.50;99.90
15937;DHT22;9163;48.818;8.976;2022-12-08T12:10:31;2.60;99.90
15937;DHT22;9163;48.818;8.976;2022-12-08T12:13:08;2.40;99.90
15937;DHT22;9163;48.818;8.976;2022-12-08T12:16:21;2.50;99.90
15937;DHT22;9163;48.818;8.976;2022-12-08T12:18:52;2.40;99.90
15937;DHT22;9163;48.818;8.976;2022-12-08T12:21:24;2.20;99.90
15937;DHT22;9163;48.818;8.976;2022-12-08T12:23:54;2.30;99.90
15937;DHT22;9163;48.818;8.976;2022-12-08T12:26:25;2.40;99.90
15937;DHT22;9163;48.818;8.976;2022-12-08T12:29:00;2.30;99.90
15937;DHT22;9163;48.818;8.976;2022-12-08T12:31:30;2.30;99.90
15937;DHT22;9163;48.818;8.976;2022-12-08T12:34:06;2.20;99.90
15937;DHT22;9163;48.818;8.976;2022-12-08T12:36:47;2.30;99.90
15937;DHT22;9163;48.818;8.976;2022-12-08T12:39:18;2.30;99.90
15937;DHT22;9163;48.818;8.976;2022-12-08T12:41:50;2.30;99.90
15937;DHT22;9163;48.818;8.976;2022-12-08T12:44:36;2.30;99.90
15937;DHT22;9163;48.818;8.976;2022-12-08T12:47:05;2.40;99.90
15937;DHT22;9163;48.818;8.976;2022-12-08T12:50:03;2.50;99.90
15937;DHT22;9163;48.818;8.976;2022-12-08T12:52:43;2.50;99.90
15937;DHT22;9163;48.818;8.976;2022-12-08T12:55:28;2.60;99.90
15937;DHT22;9163;48.818;8.976;2022-12-08T12:58:33;2.70;99.90
15937;DHT22;9163;48.818;8.976;2022-12-08T13:04:07;2.80;99.90
15937;DHT22;9163;48.818;8.976;2022-12-08T13:06:42;2.70;99.90
15937;DHT22;9163;48.818;8.976;2022-12-08T13:09:29;2.70;99.90
15937;DHT22;9163;48.818;8.976;2022-12-08T13:11:59;2.80;99.90
15937;DHT22;9163;48.818;8.976;2022-12-08T13:14:31;2.80;99.90
15937;DHT22;9163;48.818;8.976;2022-12-08T13:17:00;2.80;99.90
15937;DHT22;9163;48.818;8.976;2022-12-08T13:19:30;2.70;99.90
15937;DHT22;9163;48.818;8.976;2022-12-08T13:21:59;2.60;99.90
15937;DHT22;9163;48.818;8.976;2022-12-08T13:24:33;2.60;99.90
15937;DHT22;9163;48.818;8.976;2022-12-08T13:27:32;2.50;99.90
15937;DHT22;9163;48.818;8.976;2022-12-08T13:33:10;2.50;99.90
15937;DHT22;9163;48.818;8.976;2022-12-08T13:35:40;2.50;99.90
15937;DHT22;9163;48.818;8.976;2022-12-08T13:38:13;2.50;99.90
15937;DHT22;9163;48.818;8.976;2022-12-08T13:40:42;2.50;99.90
15937;DHT22;9163;48.818;8.976;2022-12-08T13:43:16;2.40;99.90
15937;DHT22;9163;48.818;8.976;2022-12-08T13:45:45;2.40;99.90
15937;DHT22;9163;48.818;8.976;2022-12-08T13:48:19;2.30;99.90
15937;DHT22;9163;48.818;8.976;2022-12-08T13:50:52;2.30;99.90
15937;DHT22;9163;48.818;8.976;2022-12-08T13:53:23;2.30;99.90
15937;DHT22;9163;48.818;8.976;2022-12-08T13:55:55;2.30;99.90
15937;DHT22;9163;48.818;8.976;2022-12-08T13:58:25;2.20;99.90
15937;DHT22;9163;48.818;8.976;2022-12-08T14:00:59;2.20;99.90
15937;DHT22;9163;48.818;8.976;2022-12-08T14:03:29;2.20;99.90
15937;DHT22;9163;48.818;8.976;2022-12-08T14:05:57;2.10;99.90
15937;DHT22;9163;48.818;8.976;2022-12-08T14:08:28;2.10;99.90
15937;DHT22;9163;48.818;8.976;2022-12-08T14:10:59;2.10;99.90
15937;DHT22;9163;48.818;8.976;2022-12-08T14:13:29;2.10;99.90
15937;DHT22;9163;48.818;8.976;2022-12-08T14:15:57;2.20;99.90
15937;DHT22;9163;48.818;8.976;2022-12-08T14:18:27;2.10;99.90
15937;DHT22;9163;48.818;8.976;2022-12-08T14:21:02;2.10;99.90
15937;DHT22;9163;48.818;8.976;2022-12-08T14:23:29;2.10;99.90
15937;DHT22;9163;48.818;8.976;2022-12-08T14:26:00;2.10;99.90
15937;DHT22;9163;48.818;8.976;2022-12-08T14:28:30;2.10;99.90
15937;DHT22;9163;48.818;8.976;2022-12-08T14:30:58;2.20;99.90
15937;DHT22;9163;48.818;8.976;2022-12-08T14:33:26;2.10;99.90
15937;DHT22;9163;48.818;8.976;2022-12-08T14:35:54;2.10;99.90
15937;DHT22;9163;48.818;8.976;2022-12-08T14:38:24;2.10;99.90
15937;DHT22;9163;48.818;8.976;2022-12-08T14:41:05;2.10;99.90
15937;DHT22;9163;48.818;8.976;2022-12-08T14:43:33;2.00;99.90
15937;DHT22;9163;48.818;8.976;2022-12-08T14:46:02;2.00;99.90
15937;DHT22;9163;48.818;8.976;2022-12-08T14:48:40;2.00;99.90
15937;DHT22;9163;48.818;8.976;2022-12-08T14:51:15;2.00;99.90
15937;DHT22;9163;48.818;8.976;2022-12-08T14:53:51;2.00;99.90
15937;DHT22;9163;48.818;8.976;2022-12-08T14:56:21;1.90;99.90
15937;DHT22;9163;48.818;8.976;2022-12-08T14:59:01;1.90;99.90
15937;DHT22;9163;48.818;8.976;2022-12-08T15:01:29;1.90;99.90
15937;DHT22;9163;48.818;8.976;2022-12-08T15:04:00;1.90;99.90
15937;DHT22;9163;48.818;8.976;2022-12-08T15:06:28;1.90;99.90
15937;DHT22;9163;48.818;8.976;2022-12-08T15:08:58;2.00;99.90
15937;DHT22;9163;48.818;8.976;2022-12-08T15:11:30;1.90;99.90
15937;DHT22;9163;48.818;8.976;2022-12-08T15:13:58;1.80;99.90
15937;DHT22;9163;48.818;8.976;2022-12-08T15:16:29;1.80;99.90
15937;DHT22;9163;48.818;8.976;2022-12-08T15:19:04;1.80;99.90
15937;DHT22;9163;48.818;8.976;2022-12-08T15:21:36;1.70;99.90
15937;DHT22;9163;48.818;8.976;2022-12-08T15:24:08;1.80;99.90
15937;DHT22;9163;48.818;8.976;2022-12-08T15:26:39;1.80;99.90
15937;DHT22;9163;48.818;8.976;2022-12-08T15:29:12;1.80;99.90
15937;DHT22;9163;48.818;8.976;2022-12-08T15:31:41;1.80;99.90
15937;DHT22;9163;48.818;8.976;2022-12-08T15:34:08;1.80;99.90
15937;DHT22;9163;48.818;8.976;2022-12-08T15:36:35;1.70;99.90
15937;DHT22;9163;48.818;8.976;2022-12-08T15:39:22;1.70;99.90
15937;DHT22;9163;48.818;8.976;2022-12-08T15:41:51;1.70;99.90
15937;DHT22;9163;48.818;8.976;2022-12-08T15:44:18;1.80;99.90
15937;DHT22;9163;48.818;8.976;2022-12-08T15:46:46;1.80;99.90
15937;DHT22;9163;48.818;8.976;2022-12-08T15:49:17;1.70;99.90
15937;DHT22;9163;48.818;8.976;2022-12-08T15:51:44;1.80;99.90
15937;DHT22;9163;48.818;8.976;2022-12-08T15:54:13;1.70;99.90
15937;DHT22;9163;48.818;8.976;2022-12-08T15:56:45;1.70;99.90
15937;DHT22;9163;48.818;8.976;2022-12-08T15:59:16;1.60;99.90
15937;DHT22;9163;48.818;8.976;2022-12-08T16:01:44;1.60;99.90
15937;DHT22;9163;48.818;8.976;2022-12-08T16:04:13;1.60;99.90
15937;DHT22;9163;48.818;8.976;2022-12-08T16:06:43;1.60;99.90
15937;DHT22;9163;48.818;8.976;2022-12-08T16:09:18;1.60;99.90
15937;DHT22;9163;48.818;8.976;2022-12-08T16:11:46;1.50;99.90
15937;DHT22;9163;48.818;8.976;2022-12-08T16:14:31;1.50;99.90
15937;DHT22;9163;48.818;8.976;2022-12-08T16:16:58;1.40;99.90
15937;DHT22;9163;48.818;8.976;2022-12-08T16:19:26;1.40;99.90
15937;DHT22;9163;48.818;8.976;2022-12-08T16:21:53;1.40;99.90
15937;DHT22;9163;48.818;8.976;2022-12-08T16:24:23;1.40;99.90